sensor_id;sensor_type;location;lat;lon;timestamp;P1;durP1;ratioP1;P2;durP2;ratioP2
65982;SDS011;52740;40.620;-8.640;2022-10-16T00:01:31;11.60;;;10.40;;
65982;SDS011;52740;40.620;-8.640;2022-10-16T00:03:32;10.93;;;10.18;;
65982;SDS011;52740;40.620;-8.640;2022-10-16T00:05:37;10.02;;;9.05;;
65982;SDS011;52740;40.620;-8.640;2022-10-16T00:07:39;11.73;;;10.63;;
65982;SDS011;52740;40.620;-8.640;2022-10-16T00:09:41;10.30;;;9.40;;
65982;SDS011;52740;40.620;-8.640;2022-10-16T00:11:41;10.38;;;9.63;;
65982;SDS011;52740;40.620;-8.640;2022-10-16T00:13:43;11.57;;;10.50;;
65982;SDS011;52740;40.620;-8.640;2022-10-16T00:15:45;11.13;;;10.32;;
65982;SDS011;52740;40.620;-8.640;2022-10-16T00:17:46;11.55;;;10.55;;
65982;SDS011;52740;40.620;-8.640;2022-10-16T00:19:47;11.45;;;10.50;;
65982;SDS011;52740;40.620;-8.640;2022-10-16T00:21:47;11.00;;;10.05;;
65982;SDS011;52740;40.620;-8.640;2022-10-16T00:23:52;11.80;;;10.85;;
65982;SDS011;52740;40.620;-8.640;2022-10-16T00:25:55;11.95;;;10.75;;
65982;SDS011;52740;40.620;-8.640;2022-10-16T00:28:01;11.65;;;10.48;;
65982;SDS011;52740;40.620;-8.640;2022-10-16T00:30:01;12.43;;;10.77;;
65982;SDS011;52740;40.620;-8.640;2022-10-16T00:32:03;12.23;;;10.20;;
65982;SDS011;52740;40.620;-8.640;2022-10-16T00:34:04;11.85;;;10.48;;
65982;SDS011;52740;40.620;-8.640;2022-10-16T00:36:05;10.82;;;9.82;;
65982;SDS011;52740;40.620;-8.640;2022-10-16T00:38:07;11.55;;;9.38;;
65982;SDS011;52740;40.620;-8.640;2022-10-16T00:40:08;11.82;;;9.77;;
65982;SDS011;52740;40.620;-8.640;2022-10-16T00:42:14;9.65;;;8.68;;
65982;SDS011;52740;40.620;-8.640;2022-10-16T00:46:57;16.13;;;9.50;;
65982;SDS011;52740;40.620;-8.640;2022-10-16T00:49:11;11.50;;;9.20;;
65982;SDS011;52740;40.620;-8.640;2022-10-16T00:51:15;15.98;;;9.57;;
65982;SDS011;52740;40.620;-8.640;2022-10-16T00:53:20;14.95;;;10.15;;
65982;SDS011;52740;40.620;-8.640;2022-10-16T00:55:22;11.35;;;9.90;;
65982;SDS011;52740;40.620;-8.640;2022-10-16T00:57:23;17.90;;;11.25;;
65982;SDS011;52740;40.620;-8.640;2022-10-16T00:59:26;15.60;;;10.30;;
65982;SDS011;52740;40.620;-8.640;2022-10-16T01:01:28;13.18;;;8.82;;
65982;SDS011;52740;40.620;-8.640;2022-10-16T01:03:30;10.85;;;8.70;;
65982;SDS011;52740;40.620;-8.640;2022-10-16T01:05:34;12.57;;;8.18;;
65982;SDS011;52740;40.620;-8.640;2022-10-16T01:07:56;11.65;;;8.50;;
65982;SDS011;52740;40.620;-8.640;2022-10-16T01:14:54;11.57;;;8.55;;
65982;SDS011;52740;40.620;-8.640;2022-10-16T01:17:11;11.95;;;8.40;;
65982;SDS011;52740;40.620;-8.640;2022-10-16T01:19:17;9.20;;;8.38;;
65982;SDS011;52740;40.620;-8.640;2022-10-16T01:21:35;11.07;;;8.85;;
65982;SDS011;52740;40.620;-8.640;2022-10-16T01:23:46;11.13;;;9.35;;
65982;SDS011;52740;40.620;-8.640;2022-10-16T01:28:14;11.13;;;9.32;;
65982;SDS011;52740;40.620;-8.640;2022-10-16T01:30:21;10.88;;;8.00;;
65982;SDS011;52740;40.620;-8.640;2022-10-16T01:37:15;10.57;;;9.50;;
65982;SDS011;52740;40.620;-8.640;2022-10-16T01:39:24;11.40;;;10.45;;
65982;SDS011;52740;40.620;-8.640;2022-10-16T01:41:33;10.48;;;9.48;;
65982;SDS011;52740;40.620;-8.640;2022-10-16T01:43:40;9.20;;;8.43;;
65982;SDS011;52740;40.620;-8.640;2022-10-16T01:45:45;10.70;;;9.70;;
65982;SDS011;52740;40.620;-8.640;2022-10-16T01:47:47;9.85;;;8.88;;
65982;SDS011;52740;40.620;-8.640;2022-10-16T01:49:49;11.35;;;9.73;;
65982;SDS011;52740;40.620;-8.640;2022-10-16T01:51:52;10.38;;;8.75;;
65982;SDS011;52740;40.620;-8.640;2022-10-16T01:53:57;9.88;;;8.43;;
65982;SDS011;52740;40.620;-8.640;2022-10-16T01:56:00;12.60;;;9.15;;
65982;SDS011;52740;40.620;-8.640;2022-10-16T01:58:05;10.43;;;8.73;;
65982;SDS011;52740;40.620;-8.640;2022-10-16T02:00:10;12.73;;;8.27;;
65982;SDS011;52740;40.620;-8.640;2022-10-16T02:02:13;10.07;;;8.27;;
65982;SDS011;52740;40.620;-8.640;2022-10-16T02:04:26;10.48;;;7.18;;
65982;SDS011;52740;40.620;-8.640;2022-10-16T02:06:31;8.77;;;7.13;;
65982;SDS011;52740;40.620;-8.640;2022-10-16T02:08:32;12.75;;;7.50;;
65982;SDS011;52740;40.620;-8.640;2022-10-16T02:10:34;7.93;;;6.72;;
65982;SDS011;52740;40.620;-8.640;2022-10-16T02:12:37;6.63;;;5.97;;
65982;SDS011;52740;40.620;-8.640;2022-10-16T02:14:43;6.82;;;6.30;;
65982;SDS011;52740;40.620;-8.640;2022-10-16T02:16:44;7.18;;;6.57;;
65982;SDS011;52740;40.620;-8.640;2022-10-16T02:18:46;6.45;;;5.95;;
65982;SDS011;52740;40.620;-8.640;2022-10-16T02:22:50;7.03;;;6.43;;
65982;SDS011;52740;40.620;-8.640;2022-10-16T02:24:58;6.10;;;5.60;;
65982;SDS011;52740;40.620;-8.640;2022-10-16T02:29:22;6.07;;;5.60;;
65982;SDS011;52740;40.620;-8.640;2022-10-16T02:31:27;6.28;;;5.20;;
65982;SDS011;52740;40.620;-8.640;2022-10-16T02:33:31;6.18;;;5.50;;
65982;SDS011;52740;40.620;-8.640;2022-10-16T02:35:35;6.60;;;5.70;;
65982;SDS011;52740;40.620;-8.640;2022-10-16T02:37:38;5.82;;;5.25;;
65982;SDS011;52740;40.620;-8.640;2022-10-16T02:39:40;5.63;;;5.22;;
65982;SDS011;52740;40.620;-8.640;2022-10-16T02:41:42;5.15;;;4.85;;
65982;SDS011;52740;40.620;-8.640;2022-10-16T02:43:42;5.82;;;5.43;;
65982;SDS011;52740;40.620;-8.640;2022-10-16T02:45:43;5.90;;;5.40;;
65982;SDS011;52740;40.620;-8.640;2022-10-16T02:47:44;5.35;;;4.85;;
65982;SDS011;52740;40.620;-8.640;2022-10-16T02:49:45;5.32;;;4.82;;
65982;SDS011;52740;40.620;-8.640;2022-10-16T02:51:45;5.63;;;5.10;;
65982;SDS011;52740;40.620;-8.640;2022-10-16T02:53:46;5.20;;;4.80;;
65982;SDS011;52740;40.620;-8.640;2022-10-16T02:55:47;5.43;;;5.03;;
65982;SDS011;52740;40.620;-8.640;2022-10-16T02:57:47;5.72;;;5.15;;
65982;SDS011;52740;40.620;-8.640;2022-10-16T02:59:48;7.93;;;6.03;;
65982;SDS011;52740;40.620;-8.640;2022-10-16T03:01:49;5.80;;;5.40;;
65982;SDS011;52740;40.620;-8.640;2022-10-16T03:03:49;7.13;;;6.18;;
65982;SDS011;52740;40.620;-8.640;2022-10-16T03:05:50;7.30;;;5.35;;
65982;SDS011;52740;40.620;-8.640;2022-10-16T03:07:51;5.85;;;5.35;;
65982;SDS011;52740;40.620;-8.640;2022-10-16T03:09:52;7.50;;;5.78;;
65982;SDS011;52740;40.620;-8.640;2022-10-16T03:11:54;6.15;;;5.55;;
65982;SDS011;52740;40.620;-8.640;2022-10-16T03:13:55;5.43;;;5.03;;
65982;SDS011;52740;40.620;-8.640;2022-10-16T03:15:56;8.10;;;7.30;;
65982;SDS011;52740;40.620;-8.640;2022-10-16T03:17:59;8.25;;;7.28;;
65982;SDS011;52740;40.620;-8.640;2022-10-16T03:20:00;6.28;;;5.85;;
65982;SDS011;52740;40.620;-8.640;2022-10-16T03:22:01;7.05;;;6.47;;
65982;SDS011;52740;40.620;-8.640;2022-10-16T03:24:02;7.05;;;6.55;;
65982;SDS011;52740;40.620;-8.640;2022-10-16T03:26:03;6.22;;;5.82;;
65982;SDS011;52740;40.620;-8.640;2022-10-16T03:28:04;7.35;;;5.78;;
65982;SDS011;52740;40.620;-8.640;2022-10-16T03:30:05;5.93;;;5.53;;
65982;SDS011;52740;40.620;-8.640;2022-10-16T03:32:06;7.05;;;6.45;;
65982;SDS011;52740;40.620;-8.640;2022-10-16T03:34:06;6.28;;;5.78;;
65982;SDS011;52740;40.620;-8.640;2022-10-16T03:36:07;6.65;;;6.05;;
65982;SDS011;52740;40.620;-8.640;2022-10-16T03:38:08;7.20;;;6.60;;
65982;SDS011;52740;40.620;-8.640;2022-10-16T03:40:09;6.82;;;6.32;;
65982;SDS011;52740;40.620;-8.640;2022-10-16T03:42:10;7.65;;;7.13;;
65982;SDS011;52740;40.620;-8.640;2022-10-16T03:44:10;8.02;;;7.32;;
65982;SDS011;52740;40.620;-8.640;2022-10-16T03:46:11;7.95;;;7.28;;
65982;SDS011;52740;40.620;-8.640;2022-10-16T03:48:12;8.00;;;7.40;;
65982;SDS011;52740;40.620;-8.640;2022-10-16T03:50:13;9.07;;;8.18;;
65982;SDS011;52740;40.620;-8.640;2022-10-16T03:52:13;8.15;;;7.47;;
65982;SDS011;52740;40.620;-8.640;2022-10-16T03:54:14;7.50;;;6.80;;
65982;SDS011;52740;40.620;-8.640;2022-10-16T03:56:14;8.38;;;6.97;;
65982;SDS011;52740;40.620;-8.640;2022-10-16T03:58:16;6.80;;;6.20;;
65982;SDS011;52740;40.620;-8.640;2022-10-16T04:00:17;8.45;;;6.88;;
65982;SDS011;52740;40.620;-8.640;2022-10-16T04:02:17;7.85;;;6.70;;
65982;SDS011;52740;40.620;-8.640;2022-10-16T04:04:18;7.55;;;6.85;;
65982;SDS011;52740;40.620;-8.640;2022-10-16T04:06:19;7.18;;;6.55;;
65982;SDS011;52740;40.620;-8.640;2022-10-16T04:08:19;7.57;;;6.82;;
65982;SDS011;52740;40.620;-8.640;2022-10-16T04:10:20;6.38;;;5.78;;
65982;SDS011;52740;40.620;-8.640;2022-10-16T04:12:21;7.10;;;6.55;;
65982;SDS011;52740;40.620;-8.640;2022-10-16T04:14:21;6.85;;;6.00;;
65982;SDS011;52740;40.620;-8.640;2022-10-16T04:16:22;6.43;;;5.90;;
65982;SDS011;52740;40.620;-8.640;2022-10-16T04:18:23;6.18;;;5.68;;
65982;SDS011;52740;40.620;-8.640;2022-10-16T04:20:23;6.28;;;5.70;;
65982;SDS011;52740;40.620;-8.640;2022-10-16T04:22:24;5.65;;;5.07;;
65982;SDS011;52740;40.620;-8.640;2022-10-16T04:24:25;5.70;;;5.30;;
65982;SDS011;52740;40.620;-8.640;2022-10-16T04:26:26;5.65;;;5.25;;
65982;SDS011;52740;40.620;-8.640;2022-10-16T04:28:26;6.63;;;6.03;;
65982;SDS011;52740;40.620;-8.640;2022-10-16T04:30:28;6.82;;;5.75;;
65982;SDS011;52740;40.620;-8.640;2022-10-16T04:32:29;5.57;;;5.15;;
65982;SDS011;52740;40.620;-8.640;2022-10-16T04:34:29;6.03;;;5.55;;
65982;SDS011;52740;40.620;-8.640;2022-10-16T04:36:30;7.75;;;4.95;;
65982;SDS011;52740;40.620;-8.640;2022-10-16T04:38:31;5.22;;;4.82;;
65982;SDS011;52740;40.620;-8.640;2022-10-16T04:40:32;5.20;;;4.85;;
65982;SDS011;52740;40.620;-8.640;2022-10-16T04:42:33;5.10;;;4.72;;
65982;SDS011;52740;40.620;-8.640;2022-10-16T04:44:33;4.95;;;4.55;;
65982;SDS011;52740;40.620;-8.640;2022-10-16T04:46:34;6.35;;;5.85;;
65982;SDS011;52740;40.620;-8.640;2022-10-16T04:48:35;5.28;;;4.93;;
65982;SDS011;52740;40.620;-8.640;2022-10-16T04:50:36;5.15;;;4.65;;
65982;SDS011;52740;40.620;-8.640;2022-10-16T04:52:39;14.52;;;5.15;;
65982;SDS011;52740;40.620;-8.640;2022-10-16T04:54:39;5.18;;;4.88;;
65982;SDS011;52740;40.620;-8.640;2022-10-16T04:56:40;4.80;;;4.50;;
65982;SDS011;52740;40.620;-8.640;2022-10-16T04:58:47;4.97;;;4.57;;
65982;SDS011;52740;40.620;-8.640;2022-10-16T05:00:48;4.80;;;4.40;;
65982;SDS011;52740;40.620;-8.640;2022-10-16T05:02:49;4.93;;;4.57;;
65982;SDS011;52740;40.620;-8.640;2022-10-16T05:04:51;5.13;;;4.75;;
65982;SDS011;52740;40.620;-8.640;2022-10-16T05:06:52;5.28;;;4.88;;
65982;SDS011;52740;40.620;-8.640;2022-10-16T05:08:52;5.68;;;5.28;;
65982;SDS011;52740;40.620;-8.640;2022-10-16T05:10:53;5.18;;;4.80;;
65982;SDS011;52740;40.620;-8.640;2022-10-16T05:12:54;4.60;;;4.30;;
65982;SDS011;52740;40.620;-8.640;2022-10-16T05:14:55;6.72;;;4.50;;
65982;SDS011;52740;40.620;-8.640;2022-10-16T05:16:59;6.07;;;5.63;;
65982;SDS011;52740;40.620;-8.640;2022-10-16T05:19:00;5.72;;;4.90;;
65982;SDS011;52740;40.620;-8.640;2022-10-16T05:21:01;5.18;;;4.78;;
65982;SDS011;52740;40.620;-8.640;2022-10-16T05:23:02;4.88;;;4.53;;
65982;SDS011;52740;40.620;-8.640;2022-10-16T05:25:02;4.97;;;4.57;;
65982;SDS011;52740;40.620;-8.640;2022-10-16T05:27:03;5.28;;;4.93;;
65982;SDS011;52740;40.620;-8.640;2022-10-16T05:29:04;4.68;;;4.28;;
65982;SDS011;52740;40.620;-8.640;2022-10-16T05:31:05;5.10;;;4.63;;
65982;SDS011;52740;40.620;-8.640;2022-10-16T05:33:07;4.72;;;4.43;;
65982;SDS011;52740;40.620;-8.640;2022-10-16T05:35:08;4.57;;;4.28;;
65982;SDS011;52740;40.620;-8.640;2022-10-16T05:37:08;4.60;;;4.18;;
65982;SDS011;52740;40.620;-8.640;2022-10-16T05:39:09;4.10;;;3.90;;
65982;SDS011;52740;40.620;-8.640;2022-10-16T05:41:10;5.22;;;4.32;;
65982;SDS011;52740;40.620;-8.640;2022-10-16T05:43:11;4.90;;;4.60;;
65982;SDS011;52740;40.620;-8.640;2022-10-16T05:45:12;4.30;;;4.00;;
65982;SDS011;52740;40.620;-8.640;2022-10-16T05:47:13;4.43;;;4.22;;
65982;SDS011;52740;40.620;-8.640;2022-10-16T05:49:14;4.40;;;4.10;;
65982;SDS011;52740;40.620;-8.640;2022-10-16T05:51:15;4.53;;;4.18;;
65982;SDS011;52740;40.620;-8.640;2022-10-16T05:53:15;4.10;;;3.90;;
65982;SDS011;52740;40.620;-8.640;2022-10-16T05:55:16;4.78;;;4.15;;
65982;SDS011;52740;40.620;-8.640;2022-10-16T05:57:17;4.13;;;3.92;;
65982;SDS011;52740;40.620;-8.640;2022-10-16T05:59:18;5.65;;;4.22;;
65982;SDS011;52740;40.620;-8.640;2022-10-16T06:01:19;4.32;;;4.13;;
65982;SDS011;52740;40.620;-8.640;2022-10-16T06:03:21;4.65;;;4.35;;
65982;SDS011;52740;40.620;-8.640;2022-10-16T06:05:22;3.95;;;3.75;;
65982;SDS011;52740;40.620;-8.640;2022-10-16T06:07:22;6.97;;;4.68;;
65982;SDS011;52740;40.620;-8.640;2022-10-16T06:09:23;4.55;;;4.25;;
65982;SDS011;52740;40.620;-8.640;2022-10-16T06:11:25;5.57;;;4.75;;
65982;SDS011;52740;40.620;-8.640;2022-10-16T06:13:28;4.65;;;4.35;;
65982;SDS011;52740;40.620;-8.640;2022-10-16T06:15:29;5.00;;;4.70;;
65982;SDS011;52740;40.620;-8.640;2022-10-16T06:17:29;5.38;;;5.00;;
65982;SDS011;52740;40.620;-8.640;2022-10-16T06:19:30;4.78;;;4.47;;
65982;SDS011;52740;40.620;-8.640;2022-10-16T06:21:31;5.10;;;4.60;;
65982;SDS011;52740;40.620;-8.640;2022-10-16T06:23:33;5.22;;;4.82;;
65982;SDS011;52740;40.620;-8.640;2022-10-16T06:25:37;5.57;;;4.10;;
65982;SDS011;52740;40.620;-8.640;2022-10-16T06:27:39;4.85;;;4.53;;
65982;SDS011;52740;40.620;-8.640;2022-10-16T06:29:41;4.78;;;4.20;;
65982;SDS011;52740;40.620;-8.640;2022-10-16T06:31:43;5.00;;;4.30;;
65982;SDS011;52740;40.620;-8.640;2022-10-16T06:33:44;5.22;;;4.93;;
65982;SDS011;52740;40.620;-8.640;2022-10-16T06:35:47;5.28;;;4.80;;
65982;SDS011;52740;40.620;-8.640;2022-10-16T06:37:47;4.63;;;4.32;;
65982;SDS011;52740;40.620;-8.640;2022-10-16T06:39:48;5.18;;;4.90;;
65982;SDS011;52740;40.620;-8.640;2022-10-16T06:41:49;5.22;;;4.82;;
65982;SDS011;52740;40.620;-8.640;2022-10-16T06:43:50;4.82;;;4.43;;
65982;SDS011;52740;40.620;-8.640;2022-10-16T06:47:53;4.90;;;4.60;;
65982;SDS011;52740;40.620;-8.640;2022-10-16T06:49:54;4.82;;;4.43;;
65982;SDS011;52740;40.620;-8.640;2022-10-16T06:51:55;6.20;;;4.72;;
65982;SDS011;52740;40.620;-8.640;2022-10-16T06:53:55;4.75;;;4.45;;
65982;SDS011;52740;40.620;-8.640;2022-10-16T06:55:57;5.88;;;5.38;;
65982;SDS011;52740;40.620;-8.640;2022-10-16T06:57:57;5.10;;;4.70;;
65982;SDS011;52740;40.620;-8.640;2022-10-16T06:59:58;4.97;;;4.57;;
65982;SDS011;52740;40.620;-8.640;2022-10-16T07:02:00;5.05;;;4.70;;
65982;SDS011;52740;40.620;-8.640;2022-10-16T07:04:01;4.35;;;4.15;;
65982;SDS011;52740;40.620;-8.640;2022-10-16T07:06:03;5.32;;;5.03;;
65982;SDS011;52740;40.620;-8.640;2022-10-16T07:08:05;5.15;;;4.75;;
65982;SDS011;52740;40.620;-8.640;2022-10-16T07:10:06;7.97;;;4.25;;
65982;SDS011;52740;40.620;-8.640;2022-10-16T07:12:07;4.80;;;4.50;;
65982;SDS011;52740;40.620;-8.640;2022-10-16T07:14:15;4.82;;;4.53;;
65982;SDS011;52740;40.620;-8.640;2022-10-16T07:16:19;4.80;;;4.50;;
65982;SDS011;52740;40.620;-8.640;2022-10-16T07:18:20;4.53;;;4.20;;
65982;SDS011;52740;40.620;-8.640;2022-10-16T07:20:26;4.70;;;4.22;;
65982;SDS011;52740;40.620;-8.640;2022-10-16T07:22:27;4.47;;;4.22;;
65982;SDS011;52740;40.620;-8.640;2022-10-16T07:24:29;4.53;;;4.22;;
65982;SDS011;52740;40.620;-8.640;2022-10-16T07:26:30;5.10;;;4.70;;
65982;SDS011;52740;40.620;-8.640;2022-10-16T07:28:33;4.82;;;4.53;;
65982;SDS011;52740;40.620;-8.640;2022-10-16T07:30:35;4.60;;;4.25;;
65982;SDS011;52740;40.620;-8.640;2022-10-16T07:32:37;4.90;;;4.60;;
65982;SDS011;52740;40.620;-8.640;2022-10-16T07:34:38;5.00;;;4.70;;
65982;SDS011;52740;40.620;-8.640;2022-10-16T07:36:39;5.28;;;4.97;;
65982;SDS011;52740;40.620;-8.640;2022-10-16T07:38:40;5.82;;;5.43;;
65982;SDS011;52740;40.620;-8.640;2022-10-16T07:40:42;5.97;;;5.47;;
65982;SDS011;52740;40.620;-8.640;2022-10-16T07:42:43;6.72;;;6.25;;
65982;SDS011;52740;40.620;-8.640;2022-10-16T07:44:44;6.40;;;6.00;;
65982;SDS011;52740;40.620;-8.640;2022-10-16T07:46:44;6.60;;;6.20;;
65982;SDS011;52740;40.620;-8.640;2022-10-16T07:48:45;8.07;;;7.43;;
65982;SDS011;52740;40.620;-8.640;2022-10-16T07:50:47;7.35;;;6.85;;
65982;SDS011;52740;40.620;-8.640;2022-10-16T07:52:48;9.02;;;8.30;;
65982;SDS011;52740;40.620;-8.640;2022-10-16T07:54:48;11.15;;;10.23;;
65982;SDS011;52740;40.620;-8.640;2022-10-16T07:56:49;10.10;;;9.60;;
65982;SDS011;52740;40.620;-8.640;2022-10-16T07:58:50;10.52;;;9.77;;
65982;SDS011;52740;40.620;-8.640;2022-10-16T08:00:51;10.57;;;9.77;;
65982;SDS011;52740;40.620;-8.640;2022-10-16T08:02:52;9.98;;;9.38;;
65982;SDS011;52740;40.620;-8.640;2022-10-16T08:04:53;11.68;;;10.93;;
65982;SDS011;52740;40.620;-8.640;2022-10-16T08:06:54;12.55;;;11.75;;
65982;SDS011;52740;40.620;-8.640;2022-10-16T08:08:55;11.80;;;11.00;;
65982;SDS011;52740;40.620;-8.640;2022-10-16T08:10:56;9.63;;;9.02;;
65982;SDS011;52740;40.620;-8.640;2022-10-16T08:12:57;8.75;;;8.25;;
65982;SDS011;52740;40.620;-8.640;2022-10-16T08:14:59;6.75;;;6.35;;
65982;SDS011;52740;40.620;-8.640;2022-10-16T08:16:59;6.68;;;6.10;;
65982;SDS011;52740;40.620;-8.640;2022-10-16T08:19:02;7.03;;;6.55;;
65982;SDS011;52740;40.620;-8.640;2022-10-16T08:21:03;6.25;;;5.85;;
65982;SDS011;52740;40.620;-8.640;2022-10-16T08:23:05;5.90;;;5.45;;
65982;SDS011;52740;40.620;-8.640;2022-10-16T08:25:07;6.13;;;5.63;;
65982;SDS011;52740;40.620;-8.640;2022-10-16T08:27:07;5.35;;;4.95;;
65982;SDS011;52740;40.620;-8.640;2022-10-16T08:29:09;5.70;;;5.22;;
65982;SDS011;52740;40.620;-8.640;2022-10-16T08:31:14;6.38;;;5.88;;
65982;SDS011;52740;40.620;-8.640;2022-10-16T08:33:15;5.97;;;5.68;;
65982;SDS011;52740;40.620;-8.640;2022-10-16T08:35:16;7.53;;;7.00;;
65982;SDS011;52740;40.620;-8.640;2022-10-16T08:37:17;6.43;;;6.13;;
65982;SDS011;52740;40.620;-8.640;2022-10-16T08:39:17;7.07;;;6.68;;
65982;SDS011;52740;40.620;-8.640;2022-10-16T08:50:48;6.57;;;6.25;;
65982;SDS011;52740;40.620;-8.640;2022-10-16T08:52:51;7.18;;;6.78;;
65982;SDS011;52740;40.620;-8.640;2022-10-16T08:54:53;7.88;;;7.38;;
65982;SDS011;52740;40.620;-8.640;2022-10-16T08:57:09;7.25;;;6.85;;
65982;SDS011;52740;40.620;-8.640;2022-10-16T09:01:22;6.55;;;6.15;;
65982;SDS011;52740;40.620;-8.640;2022-10-16T09:03:38;6.35;;;5.90;;
65982;SDS011;52740;40.620;-8.640;2022-10-16T09:05:57;5.47;;;5.10;;
65982;SDS011;52740;40.620;-8.640;2022-10-16T09:08:15;5.97;;;5.00;;
65982;SDS011;52740;40.620;-8.640;2022-10-16T09:12:48;4.68;;;4.47;;
65982;SDS011;52740;40.620;-8.640;2022-10-16T09:15:03;4.90;;;4.60;;
65982;SDS011;52740;40.620;-8.640;2022-10-16T09:19:41;5.63;;;5.10;;
65982;SDS011;52740;40.620;-8.640;2022-10-16T09:21:46;4.60;;;4.30;;
65982;SDS011;52740;40.620;-8.640;2022-10-16T09:23:48;4.38;;;4.18;;
65982;SDS011;52740;40.620;-8.640;2022-10-16T09:25:49;4.60;;;4.30;;
65982;SDS011;52740;40.620;-8.640;2022-10-16T09:27:51;4.65;;;4.45;;
65982;SDS011;52740;40.620;-8.640;2022-10-16T09:29:53;4.43;;;4.20;;
65982;SDS011;52740;40.620;-8.640;2022-10-16T09:31:54;4.80;;;4.40;;
65982;SDS011;52740;40.620;-8.640;2022-10-16T09:33:58;4.50;;;4.10;;
65982;SDS011;52740;40.620;-8.640;2022-10-16T09:36:00;4.20;;;4.00;;
65982;SDS011;52740;40.620;-8.640;2022-10-16T09:38:03;4.65;;;4.35;;
65982;SDS011;52740;40.620;-8.640;2022-10-16T09:40:04;4.70;;;4.50;;
65982;SDS011;52740;40.620;-8.640;2022-10-16T09:42:05;4.65;;;4.28;;
65982;SDS011;52740;40.620;-8.640;2022-10-16T09:44:14;4.68;;;4.40;;
65982;SDS011;52740;40.620;-8.640;2022-10-16T09:48:37;4.45;;;4.18;;
65982;SDS011;52740;40.620;-8.640;2022-10-16T09:50:43;3.95;;;3.75;;
65982;SDS011;52740;40.620;-8.640;2022-10-16T09:52:44;4.00;;;3.80;;
65982;SDS011;52740;40.620;-8.640;2022-10-16T09:55:01;4.80;;;4.60;;
65982;SDS011;52740;40.620;-8.640;2022-10-16T09:57:15;4.30;;;4.10;;
65982;SDS011;52740;40.620;-8.640;2022-10-16T09:59:17;4.07;;;3.78;;
65982;SDS011;52740;40.620;-8.640;2022-10-16T10:01:20;4.10;;;3.90;;
65982;SDS011;52740;40.620;-8.640;2022-10-16T10:03:42;4.40;;;4.20;;
65982;SDS011;52740;40.620;-8.640;2022-10-16T10:05:47;3.70;;;3.60;;
65982;SDS011;52740;40.620;-8.640;2022-10-16T10:07:56;4.30;;;4.10;;
65982;SDS011;52740;40.620;-8.640;2022-10-16T10:09:59;4.20;;;4.00;;
65982;SDS011;52740;40.620;-8.640;2022-10-16T10:12:02;4.30;;;4.10;;
65982;SDS011;52740;40.620;-8.640;2022-10-16T10:16:45;3.75;;;3.65;;
65982;SDS011;52740;40.620;-8.640;2022-10-16T10:18:57;4.22;;;4.03;;
65982;SDS011;52740;40.620;-8.640;2022-10-16T10:21:02;4.10;;;3.92;;
65982;SDS011;52740;40.620;-8.640;2022-10-16T10:23:21;3.63;;;3.53;;
65982;SDS011;52740;40.620;-8.640;2022-10-16T10:25:29;4.07;;;3.90;;
65982;SDS011;52740;40.620;-8.640;2022-10-16T10:30:29;3.83;;;3.63;;
65982;SDS011;52740;40.620;-8.640;2022-10-16T10:32:37;4.32;;;4.13;;
65982;SDS011;52740;40.620;-8.640;2022-10-16T10:37:02;4.07;;;3.88;;
65982;SDS011;52740;40.620;-8.640;2022-10-16T10:39:32;4.57;;;4.28;;
65982;SDS011;52740;40.620;-8.640;2022-10-16T10:46:15;3.97;;;3.78;;
65982;SDS011;52740;40.620;-8.640;2022-10-16T10:50:49;4.00;;;3.80;;
65982;SDS011;52740;40.620;-8.640;2022-10-16T11:00:28;4.55;;;4.25;;
65982;SDS011;52740;40.620;-8.640;2022-10-16T11:02:41;5.50;;;3.70;;
65982;SDS011;52740;40.620;-8.640;2022-10-16T11:04:59;4.80;;;4.43;;
65982;SDS011;52740;40.620;-8.640;2022-10-16T11:07:24;4.47;;;4.28;;
65982;SDS011;52740;40.620;-8.640;2022-10-16T11:09:34;4.43;;;4.22;;
65982;SDS011;52740;40.620;-8.640;2022-10-16T11:11:53;5.25;;;5.05;;
65982;SDS011;52740;40.620;-8.640;2022-10-16T11:14:00;6.53;;;6.22;;
65982;SDS011;52740;40.620;-8.640;2022-10-16T11:16:31;7.53;;;7.13;;
65982;SDS011;52740;40.620;-8.640;2022-10-16T11:19:05;9.18;;;8.77;;
65982;SDS011;52740;40.620;-8.640;2022-10-16T11:21:25;10.00;;;9.38;;
65982;SDS011;52740;40.620;-8.640;2022-10-16T11:25:43;10.13;;;9.60;;
65982;SDS011;52740;40.620;-8.640;2022-10-16T11:30:02;10.48;;;9.77;;
65982;SDS011;52740;40.620;-8.640;2022-10-16T11:32:10;8.30;;;7.90;;
65982;SDS011;52740;40.620;-8.640;2022-10-16T11:36:44;6.60;;;6.20;;
65982;SDS011;52740;40.620;-8.640;2022-10-16T11:41:37;6.68;;;6.32;;
65982;SDS011;52740;40.620;-8.640;2022-10-16T11:43:46;5.70;;;5.50;;
65982;SDS011;52740;40.620;-8.640;2022-10-16T11:45:57;5.43;;;5.13;;
65982;SDS011;52740;40.620;-8.640;2022-10-16T11:52:42;6.10;;;5.80;;
65982;SDS011;52740;40.620;-8.640;2022-10-16T11:54:52;5.53;;;5.32;;
65982;SDS011;52740;40.620;-8.640;2022-10-16T11:56:59;5.70;;;5.50;;
65982;SDS011;52740;40.620;-8.640;2022-10-16T12:03:46;6.07;;;5.65;;
65982;SDS011;52740;40.620;-8.640;2022-10-16T12:08:21;5.65;;;5.35;;
65982;SDS011;52740;40.620;-8.640;2022-10-16T12:10:24;6.22;;;5.93;;
65982;SDS011;52740;40.620;-8.640;2022-10-16T12:14:36;5.38;;;5.18;;
65982;SDS011;52740;40.620;-8.640;2022-10-16T12:16:55;6.03;;;5.72;;
65982;SDS011;52740;40.620;-8.640;2022-10-16T12:19:03;6.13;;;5.93;;
65982;SDS011;52740;40.620;-8.640;2022-10-16T12:21:11;8.40;;;8.05;;
65982;SDS011;52740;40.620;-8.640;2022-10-16T12:23:19;12.45;;;11.90;;
65982;SDS011;52740;40.620;-8.640;2022-10-16T12:25:24;13.77;;;13.18;;
65982;SDS011;52740;40.620;-8.640;2022-10-16T12:27:29;10.60;;;10.15;;
65982;SDS011;52740;40.620;-8.640;2022-10-16T12:29:39;8.50;;;8.13;;
65982;SDS011;52740;40.620;-8.640;2022-10-16T12:31:45;8.07;;;7.68;;
65982;SDS011;52740;40.620;-8.640;2022-10-16T12:34:01;6.35;;;6.05;;
65982;SDS011;52740;40.620;-8.640;2022-10-16T12:36:03;5.75;;;5.45;;
65982;SDS011;52740;40.620;-8.640;2022-10-16T12:38:18;6.18;;;5.70;;
65982;SDS011;52740;40.620;-8.640;2022-10-16T12:44:34;4.40;;;4.20;;
65982;SDS011;52740;40.620;-8.640;2022-10-16T12:46:37;4.78;;;4.32;;
65982;SDS011;52740;40.620;-8.640;2022-10-16T12:48:41;4.43;;;4.22;;
65982;SDS011;52740;40.620;-8.640;2022-10-16T12:50:44;3.75;;;3.55;;
65982;SDS011;52740;40.620;-8.640;2022-10-16T12:52:45;4.20;;;4.03;;
65982;SDS011;52740;40.620;-8.640;2022-10-16T12:54:46;4.43;;;4.22;;
65982;SDS011;52740;40.620;-8.640;2022-10-16T13:06:00;7.70;;;7.30;;
65982;SDS011;52740;40.620;-8.640;2022-10-16T13:10:51;7.65;;;7.35;;
65982;SDS011;52740;40.620;-8.640;2022-10-16T13:24:48;5.75;;;5.55;;
65982;SDS011;52740;40.620;-8.640;2022-10-16T13:29:12;6.15;;;5.88;;
65982;SDS011;52740;40.620;-8.640;2022-10-16T13:31:15;6.97;;;6.67;;
65982;SDS011;52740;40.620;-8.640;2022-10-16T13:35:33;6.90;;;6.60;;
65982;SDS011;52740;40.620;-8.640;2022-10-16T13:37:34;7.25;;;6.60;;
65982;SDS011;52740;40.620;-8.640;2022-10-16T13:39:35;9.05;;;8.45;;
65982;SDS011;52740;40.620;-8.640;2022-10-16T13:41:36;6.88;;;6.57;;
65982;SDS011;52740;40.620;-8.640;2022-10-16T13:43:46;6.78;;;6.47;;
65982;SDS011;52740;40.620;-8.640;2022-10-16T13:45:52;5.88;;;5.68;;
65982;SDS011;52740;40.620;-8.640;2022-10-16T13:48:16;6.93;;;6.38;;
65982;SDS011;52740;40.620;-8.640;2022-10-16T13:50:18;6.55;;;6.10;;
65982;SDS011;52740;40.620;-8.640;2022-10-16T13:52:19;6.45;;;6.18;;
65982;SDS011;52740;40.620;-8.640;2022-10-16T13:54:21;6.00;;;5.70;;
65982;SDS011;52740;40.620;-8.640;2022-10-16T13:56:22;6.53;;;5.97;;
65982;SDS011;52740;40.620;-8.640;2022-10-16T14:00:28;6.38;;;6.07;;
65982;SDS011;52740;40.620;-8.640;2022-10-16T14:02:31;5.75;;;5.40;;
65982;SDS011;52740;40.620;-8.640;2022-10-16T14:04:37;5.93;;;5.63;;
65982;SDS011;52740;40.620;-8.640;2022-10-16T14:08:43;6.25;;;5.95;;
65982;SDS011;52740;40.620;-8.640;2022-10-16T14:10:49;5.85;;;5.60;;
65982;SDS011;52740;40.620;-8.640;2022-10-16T14:13:00;5.72;;;5.53;;
65982;SDS011;52740;40.620;-8.640;2022-10-16T14:15:05;6.50;;;6.03;;